sensor_id;sensor_type;location;lat;lon;timestamp;P1;durP1;ratioP1;P2;durP2;ratioP2
54539;SDS011;40438;52.992;18.604;2022-09-09T00:00:05;7.80;;;3.88;;
54539;SDS011;40438;52.992;18.604;2022-09-09T00:02:38;7.25;;;3.60;;
54539;SDS011;40438;52.992;18.604;2022-09-09T00:05:12;8.25;;;4.63;;
54539;SDS011;40438;52.992;18.604;2022-09-09T00:07:43;6.10;;;3.40;;
54539;SDS011;40438;52.992;18.604;2022-09-09T00:10:14;8.57;;;3.65;;
54539;SDS011;40438;52.992;18.604;2022-09-09T00:12:48;9.15;;;4.15;;
54539;SDS011;40438;52.992;18.604;2022-09-09T00:15:20;11.77;;;4.25;;
54539;SDS011;40438;52.992;18.604;2022-09-09T00:17:50;9.80;;;4.47;;
54539;SDS011;40438;52.992;18.604;2022-09-09T00:20:23;6.80;;;4.25;;
54539;SDS011;40438;52.992;18.604;2022-09-09T00:22:55;9.80;;;3.53;;
54539;SDS011;40438;52.992;18.604;2022-09-09T00:25:27;6.95;;;4.05;;
54539;SDS011;40438;52.992;18.604;2022-09-09T00:27:58;11.00;;;4.05;;
54539;SDS011;40438;52.992;18.604;2022-09-09T00:30:24;8.77;;;4.47;;
54539;SDS011;40438;52.992;18.604;2022-09-09T00:32:54;6.53;;;4.10;;
54539;SDS011;40438;52.992;18.604;2022-09-09T00:35:24;9.32;;;4.60;;
54539;SDS011;40438;52.992;18.604;2022-09-09T00:37:54;11.50;;;4.40;;
54539;SDS011;40438;52.992;18.604;2022-09-09T00:40:24;10.73;;;4.28;;
54539;SDS011;40438;52.992;18.604;2022-09-09T00:42:58;7.80;;;3.92;;
54539;SDS011;40438;52.992;18.604;2022-09-09T00:45:45;7.57;;;4.47;;
54539;SDS011;40438;52.992;18.604;2022-09-09T00:48:28;9.00;;;4.05;;
54539;SDS011;40438;52.992;18.604;2022-09-09T00:51:00;8.02;;;4.00;;
54539;SDS011;40438;52.992;18.604;2022-09-09T00:53:35;11.40;;;4.55;;
54539;SDS011;40438;52.992;18.604;2022-09-09T00:56:08;8.90;;;4.13;;
54539;SDS011;40438;52.992;18.604;2022-09-09T00:58:37;7.68;;;4.38;;
54539;SDS011;40438;52.992;18.604;2022-09-09T01:01:03;10.52;;;4.60;;
54539;SDS011;40438;52.992;18.604;2022-09-09T01:03:36;7.35;;;4.20;;
54539;SDS011;40438;52.992;18.604;2022-09-09T01:06:11;5.93;;;4.13;;
54539;SDS011;40438;52.992;18.604;2022-09-09T01:08:43;9.88;;;4.22;;
54539;SDS011;40438;52.992;18.604;2022-09-09T01:11:25;9.75;;;4.53;;
54539;SDS011;40438;52.992;18.604;2022-09-09T01:16:29;10.95;;;4.90;;
54539;SDS011;40438;52.992;18.604;2022-09-09T01:18:58;10.48;;;4.57;;
54539;SDS011;40438;52.992;18.604;2022-09-09T01:21:34;8.48;;;5.20;;
54539;SDS011;40438;52.992;18.604;2022-09-09T01:24:17;12.30;;;5.38;;
54539;SDS011;40438;52.992;18.604;2022-09-09T01:27:16;10.45;;;5.50;;
54539;SDS011;40438;52.992;18.604;2022-09-09T01:29:44;8.45;;;5.13;;
54539;SDS011;40438;52.992;18.604;2022-09-09T01:35:07;8.07;;;5.32;;
54539;SDS011;40438;52.992;18.604;2022-09-09T01:37:36;8.30;;;5.80;;
54539;SDS011;40438;52.992;18.604;2022-09-09T01:40:02;10.07;;;5.38;;
54539;SDS011;40438;52.992;18.604;2022-09-09T01:42:31;8.83;;;5.33;;
54539;SDS011;40438;52.992;18.604;2022-09-09T01:44:58;10.25;;;4.90;;
54539;SDS011;40438;52.992;18.604;2022-09-09T01:47:24;8.50;;;5.60;;
54539;SDS011;40438;52.992;18.604;2022-09-09T01:50:08;10.23;;;5.72;;
54539;SDS011;40438;52.992;18.604;2022-09-09T01:52:37;9.68;;;6.07;;
54539;SDS011;40438;52.992;18.604;2022-09-09T01:55:08;8.38;;;5.22;;
54539;SDS011;40438;52.992;18.604;2022-09-09T01:57:40;9.38;;;6.30;;
54539;SDS011;40438;52.992;18.604;2022-09-09T02:00:13;9.68;;;6.00;;
54539;SDS011;40438;52.992;18.604;2022-09-09T02:02:42;10.60;;;6.53;;
54539;SDS011;40438;52.992;18.604;2022-09-09T02:05:22;10.60;;;6.13;;
54539;SDS011;40438;52.992;18.604;2022-09-09T02:07:59;8.85;;;5.88;;
54539;SDS011;40438;52.992;18.604;2022-09-09T02:10:41;8.38;;;6.07;;
54539;SDS011;40438;52.992;18.604;2022-09-09T02:13:28;9.15;;;5.88;;
54539;SDS011;40438;52.992;18.604;2022-09-09T02:15:56;11.40;;;6.57;;
54539;SDS011;40438;52.992;18.604;2022-09-09T02:18:27;11.27;;;5.40;;
54539;SDS011;40438;52.992;18.604;2022-09-09T02:20:57;7.65;;;5.20;;
54539;SDS011;40438;52.992;18.604;2022-09-09T02:23:24;12.25;;;5.55;;
54539;SDS011;40438;52.992;18.604;2022-09-09T02:25:53;9.00;;;5.15;;
54539;SDS011;40438;52.992;18.604;2022-09-09T02:28:23;12.80;;;6.22;;
54539;SDS011;40438;52.992;18.604;2022-09-09T02:30:53;9.73;;;5.38;;
54539;SDS011;40438;52.992;18.604;2022-09-09T02:33:19;9.63;;;4.95;;
54539;SDS011;40438;52.992;18.604;2022-09-09T02:35:49;17.70;;;5.60;;
54539;SDS011;40438;52.992;18.604;2022-09-09T02:38:20;7.57;;;4.97;;
54539;SDS011;40438;52.992;18.604;2022-09-09T02:40:56;8.73;;;5.25;;
54539;SDS011;40438;52.992;18.604;2022-09-09T02:43:22;7.28;;;5.07;;
54539;SDS011;40438;52.992;18.604;2022-09-09T02:45:53;8.02;;;5.13;;
54539;SDS011;40438;52.992;18.604;2022-09-09T02:48:30;9.85;;;5.15;;
54539;SDS011;40438;52.992;18.604;2022-09-09T02:51:03;8.80;;;5.18;;
54539;SDS011;40438;52.992;18.604;2022-09-09T02:53:35;9.50;;;4.63;;
54539;SDS011;40438;52.992;18.604;2022-09-09T02:56:09;5.88;;;4.80;;
54539;SDS011;40438;52.992;18.604;2022-09-09T02:58:42;8.27;;;4.60;;
54539;SDS011;40438;52.992;18.604;2022-09-09T03:01:10;9.90;;;4.57;;
54539;SDS011;40438;52.992;18.604;2022-09-09T03:03:36;9.70;;;4.95;;
54539;SDS011;40438;52.992;18.604;2022-09-09T03:06:07;6.53;;;4.70;;
54539;SDS011;40438;52.992;18.604;2022-09-09T03:08:33;7.88;;;4.93;;
54539;SDS011;40438;52.992;18.604;2022-09-09T03:10:59;8.48;;;4.70;;
54539;SDS011;40438;52.992;18.604;2022-09-09T03:13:27;9.43;;;4.88;;
54539;SDS011;40438;52.992;18.604;2022-09-09T03:15:53;11.13;;;5.03;;
54539;SDS011;40438;52.992;18.604;2022-09-09T03:18:21;9.10;;;4.80;;
54539;SDS011;40438;52.992;18.604;2022-09-09T03:20:51;8.60;;;5.03;;
54539;SDS011;40438;52.992;18.604;2022-09-09T03:23:18;19.92;;;7.82;;
54539;SDS011;40438;52.992;18.604;2022-09-09T03:25:48;20.75;;;8.40;;
54539;SDS011;40438;52.992;18.604;2022-09-09T03:28:16;20.75;;;9.23;;
54539;SDS011;40438;52.992;18.604;2022-09-09T03:30:42;23.15;;;9.38;;
54539;SDS011;40438;52.992;18.604;2022-09-09T03:33:08;15.25;;;8.13;;
54539;SDS011;40438;52.992;18.604;2022-09-09T03:35:35;19.63;;;7.28;;
54539;SDS011;40438;52.992;18.604;2022-09-09T03:38:01;10.75;;;6.07;;
54539;SDS011;40438;52.992;18.604;2022-09-09T03:40:30;10.02;;;5.43;;
54539;SDS011;40438;52.992;18.604;2022-09-09T03:42:56;10.40;;;6.10;;
54539;SDS011;40438;52.992;18.604;2022-09-09T03:45:24;8.38;;;5.40;;
54539;SDS011;40438;52.992;18.604;2022-09-09T03:47:50;9.20;;;5.40;;
54539;SDS011;40438;52.992;18.604;2022-09-09T03:50:16;13.52;;;5.85;;
54539;SDS011;40438;52.992;18.604;2022-09-09T03:52:46;9.75;;;5.35;;
54539;SDS011;40438;52.992;18.604;2022-09-09T03:55:19;12.23;;;6.03;;
54539;SDS011;40438;52.992;18.604;2022-09-09T03:57:45;11.68;;;6.07;;
54539;SDS011;40438;52.992;18.604;2022-09-09T04:00:12;11.18;;;6.85;;
54539;SDS011;40438;52.992;18.604;2022-09-09T04:02:49;10.30;;;6.13;;
54539;SDS011;40438;52.992;18.604;2022-09-09T04:05:16;13.60;;;6.07;;
54539;SDS011;40438;52.992;18.604;2022-09-09T04:07:46;14.73;;;5.78;;
54539;SDS011;40438;52.992;18.604;2022-09-09T04:10:12;8.45;;;5.28;;
54539;SDS011;40438;52.992;18.604;2022-09-09T04:12:39;11.65;;;5.75;;
54539;SDS011;40438;52.992;18.604;2022-09-09T04:15:05;13.98;;;6.18;;
54539;SDS011;40438;52.992;18.604;2022-09-09T04:17:32;15.07;;;6.40;;
54539;SDS011;40438;52.992;18.604;2022-09-09T04:19:58;9.65;;;6.32;;
54539;SDS011;40438;52.992;18.604;2022-09-09T04:22:23;13.40;;;5.72;;
54539;SDS011;40438;52.992;18.604;2022-09-09T04:24:51;13.05;;;6.40;;
54539;SDS011;40438;52.992;18.604;2022-09-09T04:27:18;9.43;;;5.20;;
54539;SDS011;40438;52.992;18.604;2022-09-09T04:29:45;12.45;;;5.22;;
54539;SDS011;40438;52.992;18.604;2022-09-09T04:32:11;9.52;;;5.85;;
54539;SDS011;40438;52.992;18.604;2022-09-09T04:34:38;8.20;;;5.53;;
54539;SDS011;40438;52.992;18.604;2022-09-09T04:37:04;10.88;;;6.20;;
54539;SDS011;40438;52.992;18.604;2022-09-09T04:39:29;8.90;;;5.50;;
54539;SDS011;40438;52.992;18.604;2022-09-09T04:41:58;13.23;;;6.20;;
54539;SDS011;40438;52.992;18.604;2022-09-09T04:44:25;10.77;;;7.05;;
54539;SDS011;40438;52.992;18.604;2022-09-09T04:46:50;9.48;;;5.72;;
54539;SDS011;40438;52.992;18.604;2022-09-09T04:49:16;12.45;;;6.75;;
54539;SDS011;40438;52.992;18.604;2022-09-09T04:51:42;11.25;;;6.45;;
54539;SDS011;40438;52.992;18.604;2022-09-09T04:54:08;15.93;;;7.00;;
54539;SDS011;40438;52.992;18.604;2022-09-09T04:56:35;13.82;;;6.10;;
54539;SDS011;40438;52.992;18.604;2022-09-09T04:59:02;8.38;;;6.20;;
54539;SDS011;40438;52.992;18.604;2022-09-09T05:01:40;10.05;;;6.03;;
54539;SDS011;40438;52.992;18.604;2022-09-09T05:04:06;9.60;;;6.30;;
54539;SDS011;40438;52.992;18.604;2022-09-09T05:06:33;12.77;;;7.82;;
54539;SDS011;40438;52.992;18.604;2022-09-09T05:09:00;13.90;;;6.85;;
54539;SDS011;40438;52.992;18.604;2022-09-09T05:11:29;11.52;;;6.82;;
54539;SDS011;40438;52.992;18.604;2022-09-09T05:14:04;12.27;;;6.25;;
54539;SDS011;40438;52.992;18.604;2022-09-09T05:16:31;13.93;;;6.50;;
54539;SDS011;40438;52.992;18.604;2022-09-09T05:18:57;13.90;;;6.60;;
54539;SDS011;40438;52.992;18.604;2022-09-09T05:21:24;14.98;;;7.40;;
54539;SDS011;40438;52.992;18.604;2022-09-09T05:23:50;12.60;;;6.90;;
54539;SDS011;40438;52.992;18.604;2022-09-09T05:26:18;12.45;;;6.97;;
54539;SDS011;40438;52.992;18.604;2022-09-09T05:28:47;14.13;;;7.50;;
54539;SDS011;40438;52.992;18.604;2022-09-09T05:31:15;12.77;;;7.05;;
54539;SDS011;40438;52.992;18.604;2022-09-09T05:33:44;13.98;;;7.70;;
54539;SDS011;40438;52.992;18.604;2022-09-09T05:36:13;11.30;;;6.53;;
54539;SDS011;40438;52.992;18.604;2022-09-09T05:38:41;16.05;;;7.15;;
54539;SDS011;40438;52.992;18.604;2022-09-09T05:41:08;18.02;;;7.80;;
54539;SDS011;40438;52.992;18.604;2022-09-09T05:43:35;12.95;;;6.88;;
54539;SDS011;40438;52.992;18.604;2022-09-09T05:46:02;15.20;;;6.97;;
54539;SDS011;40438;52.992;18.604;2022-09-09T05:48:32;16.85;;;8.10;;
54539;SDS011;40438;52.992;18.604;2022-09-09T05:50:59;12.75;;;7.25;;
54539;SDS011;40438;52.992;18.604;2022-09-09T05:53:25;18.88;;;8.40;;
54539;SDS011;40438;52.992;18.604;2022-09-09T05:55:57;15.85;;;7.28;;
54539;SDS011;40438;52.992;18.604;2022-09-09T05:58:26;14.45;;;8.20;;
54539;SDS011;40438;52.992;18.604;2022-09-09T06:00:52;12.13;;;7.35;;
54539;SDS011;40438;52.992;18.604;2022-09-09T06:03:18;17.60;;;7.95;;
54539;SDS011;40438;52.992;18.604;2022-09-09T06:05:45;18.00;;;8.55;;
54539;SDS011;40438;52.992;18.604;2022-09-09T06:08:11;16.15;;;8.15;;
54539;SDS011;40438;52.992;18.604;2022-09-09T06:10:37;13.85;;;7.15;;
54539;SDS011;40438;52.992;18.604;2022-09-09T06:13:03;20.15;;;7.68;;
54539;SDS011;40438;52.992;18.604;2022-09-09T06:15:29;21.73;;;8.23;;
54539;SDS011;40438;52.992;18.604;2022-09-09T06:17:54;14.23;;;7.80;;
54539;SDS011;40438;52.992;18.604;2022-09-09T06:20:20;17.23;;;7.82;;
54539;SDS011;40438;52.992;18.604;2022-09-09T06:22:48;14.88;;;7.40;;
54539;SDS011;40438;52.992;18.604;2022-09-09T06:25:14;16.02;;;8.45;;
54539;SDS011;40438;52.992;18.604;2022-09-09T06:27:40;14.00;;;8.13;;
54539;SDS011;40438;52.992;18.604;2022-09-09T06:30:06;15.60;;;7.65;;
54539;SDS011;40438;52.992;18.604;2022-09-09T06:32:33;19.70;;;7.78;;
54539;SDS011;40438;52.992;18.604;2022-09-09T06:34:58;19.63;;;7.78;;
54539;SDS011;40438;52.992;18.604;2022-09-09T06:37:24;17.75;;;8.75;;
54539;SDS011;40438;52.992;18.604;2022-09-09T06:39:51;18.48;;;8.23;;
54539;SDS011;40438;52.992;18.604;2022-09-09T06:42:17;17.73;;;8.85;;
54539;SDS011;40438;52.992;18.604;2022-09-09T06:44:51;19.90;;;9.20;;
54539;SDS011;40438;52.992;18.604;2022-09-09T06:47:27;18.23;;;8.50;;
54539;SDS011;40438;52.992;18.604;2022-09-09T06:49:56;22.90;;;8.88;;
54539;SDS011;40438;52.992;18.604;2022-09-09T06:52:22;19.38;;;9.23;;
54539;SDS011;40438;52.992;18.604;2022-09-09T06:54:48;19.20;;;8.98;;
54539;SDS011;40438;52.992;18.604;2022-09-09T06:57:17;24.20;;;9.90;;
54539;SDS011;40438;52.992;18.604;2022-09-09T06:59:42;21.13;;;8.93;;
54539;SDS011;40438;52.992;18.604;2022-09-09T07:02:08;25.60;;;10.43;;
54539;SDS011;40438;52.992;18.604;2022-09-09T07:04:34;22.63;;;9.02;;
54539;SDS011;40438;52.992;18.604;2022-09-09T07:07:00;20.25;;;9.45;;
54539;SDS011;40438;52.992;18.604;2022-09-09T07:09:26;19.13;;;9.60;;
54539;SDS011;40438;52.992;18.604;2022-09-09T07:11:52;22.15;;;9.43;;
54539;SDS011;40438;52.992;18.604;2022-09-09T07:14:21;22.73;;;9.70;;
54539;SDS011;40438;52.992;18.604;2022-09-09T07:16:52;22.23;;;10.05;;
54539;SDS011;40438;52.992;18.604;2022-09-09T07:19:18;24.50;;;11.18;;
54539;SDS011;40438;52.992;18.604;2022-09-09T07:21:47;25.38;;;10.27;;
54539;SDS011;40438;52.992;18.604;2022-09-09T07:24:16;26.25;;;11.10;;
54539;SDS011;40438;52.992;18.604;2022-09-09T07:26:42;23.48;;;11.18;;
54539;SDS011;40438;52.992;18.604;2022-09-09T07:29:10;17.88;;;10.10;;
54539;SDS011;40438;52.992;18.604;2022-09-09T07:31:38;20.10;;;10.27;;
54539;SDS011;40438;52.992;18.604;2022-09-09T07:34:08;20.52;;;10.57;;
54539;SDS011;40438;52.992;18.604;2022-09-09T07:36:35;22.25;;;10.48;;
54539;SDS011;40438;52.992;18.604;2022-09-09T07:39:03;23.10;;;10.55;;
54539;SDS011;40438;52.992;18.604;2022-09-09T07:41:33;22.33;;;10.52;;
54539;SDS011;40438;52.992;18.604;2022-09-09T07:44:03;24.33;;;10.23;;
54539;SDS011;40438;52.992;18.604;2022-09-09T07:46:30;23.00;;;10.23;;
54539;SDS011;40438;52.992;18.604;2022-09-09T07:48:57;21.35;;;10.18;;
54539;SDS011;40438;52.992;18.604;2022-09-09T07:51:27;27.35;;;11.43;;
54539;SDS011;40438;52.992;18.604;2022-09-09T07:53:54;23.33;;;10.95;;
54539;SDS011;40438;52.992;18.604;2022-09-09T07:56:21;23.67;;;10.50;;
54539;SDS011;40438;52.992;18.604;2022-09-09T07:58:47;25.48;;;11.18;;
54539;SDS011;40438;52.992;18.604;2022-09-09T08:01:16;23.25;;;10.88;;
54539;SDS011;40438;52.992;18.604;2022-09-09T08:03:43;23.92;;;10.63;;
54539;SDS011;40438;52.992;18.604;2022-09-09T08:06:10;26.80;;;11.88;;
54539;SDS011;40438;52.992;18.604;2022-09-09T08:08:37;20.95;;;10.38;;
54539;SDS011;40438;52.992;18.604;2022-09-09T08:11:05;25.95;;;10.93;;
54539;SDS011;40438;52.992;18.604;2022-09-09T08:13:33;29.80;;;11.23;;
54539;SDS011;40438;52.992;18.604;2022-09-09T08:16:06;23.02;;;11.07;;
54539;SDS011;40438;52.992;18.604;2022-09-09T08:18:34;22.27;;;10.80;;
54539;SDS011;40438;52.992;18.604;2022-09-09T08:21:07;26.20;;;11.25;;
54539;SDS011;40438;52.992;18.604;2022-09-09T08:23:36;32.65;;;12.70;;
54539;SDS011;40438;52.992;18.604;2022-09-09T08:26:05;25.80;;;11.50;;
54539;SDS011;40438;52.992;18.604;2022-09-09T08:28:35;25.95;;;10.20;;
54539;SDS011;40438;52.992;18.604;2022-09-09T08:31:07;25.15;;;11.80;;
54539;SDS011;40438;52.992;18.604;2022-09-09T08:33:35;25.23;;;10.80;;
54539;SDS011;40438;52.992;18.604;2022-09-09T08:36:01;25.60;;;12.00;;
54539;SDS011;40438;52.992;18.604;2022-09-09T08:38:27;25.70;;;10.98;;
54539;SDS011;40438;52.992;18.604;2022-09-09T08:40:55;27.65;;;11.32;;
54539;SDS011;40438;52.992;18.604;2022-09-09T08:43:28;27.08;;;12.15;;
54539;SDS011;40438;52.992;18.604;2022-09-09T08:45:56;27.50;;;11.93;;
54539;SDS011;40438;52.992;18.604;2022-09-09T08:48:33;25.08;;;12.00;;
54539;SDS011;40438;52.992;18.604;2022-09-09T08:51:09;25.70;;;11.13;;
54539;SDS011;40438;52.992;18.604;2022-09-09T08:53:39;25.35;;;11.75;;
54539;SDS011;40438;52.992;18.604;2022-09-09T08:56:11;25.33;;;11.98;;
54539;SDS011;40438;52.992;18.604;2022-09-09T08:58:47;25.83;;;12.57;;
54539;SDS011;40438;52.992;18.604;2022-09-09T09:01:18;29.95;;;11.27;;
54539;SDS011;40438;52.992;18.604;2022-09-09T09:03:59;23.10;;;11.88;;
54539;SDS011;40438;52.992;18.604;2022-09-09T09:06:36;27.98;;;12.65;;
54539;SDS011;40438;52.992;18.604;2022-09-09T09:09:13;25.75;;;11.73;;
54539;SDS011;40438;52.992;18.604;2022-09-09T09:11:48;28.90;;;12.25;;
54539;SDS011;40438;52.992;18.604;2022-09-09T09:14:17;25.80;;;11.88;;
54539;SDS011;40438;52.992;18.604;2022-09-09T09:16:48;29.48;;;12.15;;
54539;SDS011;40438;52.992;18.604;2022-09-09T09:19:16;33.40;;;11.20;;
54539;SDS011;40438;52.992;18.604;2022-09-09T09:21:48;31.30;;;12.75;;
54539;SDS011;40438;52.992;18.604;2022-09-09T09:24:18;30.70;;;12.50;;
54539;SDS011;40438;52.992;18.604;2022-09-09T09:26:47;28.10;;;13.30;;
54539;SDS011;40438;52.992;18.604;2022-09-09T09:29:14;30.95;;;13.27;;
54539;SDS011;40438;52.992;18.604;2022-09-09T09:31:42;33.42;;;14.93;;
54539;SDS011;40438;52.992;18.604;2022-09-09T09:34:11;30.85;;;14.23;;
54539;SDS011;40438;52.992;18.604;2022-09-09T09:36:39;34.15;;;14.43;;
54539;SDS011;40438;52.992;18.604;2022-09-09T09:39:09;33.55;;;14.32;;
54539;SDS011;40438;52.992;18.604;2022-09-09T09:41:40;35.50;;;15.63;;
54539;SDS011;40438;52.992;18.604;2022-09-09T09:44:21;34.60;;;15.18;;
54539;SDS011;40438;52.992;18.604;2022-09-09T09:46:49;40.65;;;16.30;;
54539;SDS011;40438;52.992;18.604;2022-09-09T09:49:15;29.35;;;13.35;;
54539;SDS011;40438;52.992;18.604;2022-09-09T09:51:42;32.35;;;15.25;;
54539;SDS011;40438;52.992;18.604;2022-09-09T09:54:13;31.55;;;13.65;;
54539;SDS011;40438;52.992;18.604;2022-09-09T09:56:47;37.22;;;15.57;;
54539;SDS011;40438;52.992;18.604;2022-09-09T09:59:33;35.35;;;14.38;;
54539;SDS011;40438;52.992;18.604;2022-09-09T10:02:13;29.33;;;13.55;;
54539;SDS011;40438;52.992;18.604;2022-09-09T10:04:59;34.13;;;14.90;;
54539;SDS011;40438;52.992;18.604;2022-09-09T10:07:26;36.72;;;14.80;;
54539;SDS011;40438;52.992;18.604;2022-09-09T10:09:52;34.45;;;14.65;;
54539;SDS011;40438;52.992;18.604;2022-09-09T10:12:23;33.92;;;14.48;;
54539;SDS011;40438;52.992;18.604;2022-09-09T10:15:03;37.38;;;15.15;;
54539;SDS011;40438;52.992;18.604;2022-09-09T10:17:40;36.22;;;15.23;;
54539;SDS011;40438;52.992;18.604;2022-09-09T10:20:24;36.92;;;15.35;;
54539;SDS011;40438;52.992;18.604;2022-09-09T10:23:00;35.20;;;15.52;;
54539;SDS011;40438;52.992;18.604;2022-09-09T10:25:38;33.10;;;14.60;;
54539;SDS011;40438;52.992;18.604;2022-09-09T10:31:22;37.45;;;15.10;;
54539;SDS011;40438;52.992;18.604;2022-09-09T10:33:57;34.08;;;16.05;;
54539;SDS011;40438;52.992;18.604;2022-09-09T10:36:32;30.08;;;14.35;;
54539;SDS011;40438;52.992;18.604;2022-09-09T10:38:58;37.40;;;14.93;;
54539;SDS011;40438;52.992;18.604;2022-09-09T10:41:44;38.05;;;15.05;;
54539;SDS011;40438;52.992;18.604;2022-09-09T10:44:24;35.28;;;15.52;;
54539;SDS011;40438;52.992;18.604;2022-09-09T10:47:05;36.20;;;14.80;;
54539;SDS011;40438;52.992;18.604;2022-09-09T10:49:54;40.10;;;15.48;;
54539;SDS011;40438;52.992;18.604;2022-09-09T10:55:07;35.08;;;15.18;;
54539;SDS011;40438;52.992;18.604;2022-09-09T10:57:39;39.08;;;17.92;;
54539;SDS011;40438;52.992;18.604;2022-09-09T11:00:14;44.63;;;16.27;;
54539;SDS011;40438;52.992;18.604;2022-09-09T11:02:43;39.78;;;18.40;;
54539;SDS011;40438;52.992;18.604;2022-09-09T11:05:10;39.70;;;17.15;;
54539;SDS011;40438;52.992;18.604;2022-09-09T11:07:44;38.22;;;16.40;;
54539;SDS011;40438;52.992;18.604;2022-09-09T11:10:17;35.70;;;15.00;;
54539;SDS011;40438;52.992;18.604;2022-09-09T11:12:48;46.42;;;18.15;;
54539;SDS011;40438;52.992;18.604;2022-09-09T11:15:20;58.00;;;24.15;;
54539;SDS011;40438;52.992;18.604;2022-09-09T11:17:50;43.00;;;18.13;;
54539;SDS011;40438;52.992;18.604;2022-09-09T11:20:20;53.27;;;20.27;;
54539;SDS011;40438;52.992;18.604;2022-09-09T11:22:47;46.53;;;19.55;;
54539;SDS011;40438;52.992;18.604;2022-09-09T11:25:16;173.38;;;59.58;;
54539;SDS011;40438;52.992;18.604;2022-09-09T11:27:50;71.88;;;28.77;;
54539;SDS011;40438;52.992;18.604;2022-09-09T11:30:32;55.72;;;29.52;;
54539;SDS011;40438;52.992;18.604;2022-09-09T11:33:16;42.10;;;20.30;;
54539;SDS011;40438;52.992;18.604;2022-09-09T11:36:11;38.85;;;17.55;;
54539;SDS011;40438;52.992;18.604;2022-09-09T11:38:54;42.50;;;19.27;;
54539;SDS011;40438;52.992;18.604;2022-09-09T11:41:32;39.13;;;16.77;;
54539;SDS011;40438;52.992;18.604;2022-09-09T11:43:59;31.63;;;14.98;;
54539;SDS011;40438;52.992;18.604;2022-09-09T11:46:36;36.22;;;16.15;;
54539;SDS011;40438;52.992;18.604;2022-09-09T11:49:06;36.47;;;15.43;;
54539;SDS011;40438;52.992;18.604;2022-09-09T11:51:50;73.80;;;31.70;;
54539;SDS011;40438;52.992;18.604;2022-09-09T11:54:26;76.13;;;34.58;;
54539;SDS011;40438;52.992;18.604;2022-09-09T11:56:55;59.97;;;30.23;;
54539;SDS011;40438;52.992;18.604;2022-09-09T11:59:21;47.30;;;21.05;;
54539;SDS011;40438;52.992;18.604;2022-09-09T12:01:49;132.23;;;54.30;;
54539;SDS011;40438;52.992;18.604;2022-09-09T12:04:28;96.00;;;33.88;;
54539;SDS011;40438;52.992;18.604;2022-09-09T12:06:58;83.82;;;31.42;;
54539;SDS011;40438;52.992;18.604;2022-09-09T12:09:36;61.30;;;23.70;;
54539;SDS011;40438;52.992;18.604;2022-09-09T12:12:22;47.13;;;21.10;;
54539;SDS011;40438;52.992;18.604;2022-09-09T12:14:57;32.80;;;15.75;;
54539;SDS011;40438;52.992;18.604;2022-09-09T12:17:42;33.75;;;15.05;;
54539;SDS011;40438;52.992;18.604;2022-09-09T12:20:12;30.67;;;14.77;;
54539;SDS011;40438;52.992;18.604;2022-09-09T12:22:43;31.13;;;14.23;;
54539;SDS011;40438;52.992;18.604;2022-09-09T12:25:26;30.42;;;14.48;;
54539;SDS011;40438;52.992;18.604;2022-09-09T12:28:02;27.30;;;13.57;;
54539;SDS011;40438;52.992;18.604;2022-09-09T12:30:35;24.17;;;12.32;;
54539;SDS011;40438;52.992;18.604;2022-09-09T12:33:08;27.55;;;12.93;;
54539;SDS011;40438;52.992;18.604;2022-09-09T12:35:37;23.02;;;12.02;;
54539;SDS011;40438;52.992;18.604;2022-09-09T12:38:05;23.15;;;12.25;;
54539;SDS011;40438;52.992;18.604;2022-09-09T12:40:37;23.40;;;11.90;;
54539;SDS011;40438;52.992;18.604;2022-09-09T12:43:14;22.13;;;11.68;;
54539;SDS011;40438;52.992;18.604;2022-09-09T12:45:42;21.50;;;10.82;;
54539;SDS011;40438;52.992;18.604;2022-09-09T12:48:09;25.27;;;11.40;;
54539;SDS011;40438;52.992;18.604;2022-09-09T12:50:36;30.45;;;11.75;;
54539;SDS011;40438;52.992;18.604;2022-09-09T12:53:11;21.38;;;11.32;;
54539;SDS011;40438;52.992;18.604;2022-09-09T12:55:48;20.98;;;10.32;;
54539;SDS011;40438;52.992;18.604;2022-09-09T12:58:16;18.05;;;9.63;;
54539;SDS011;40438;52.992;18.604;2022-09-09T13:00:48;16.85;;;9.82;;
54539;SDS011;40438;52.992;18.604;2022-09-09T13:03:16;21.25;;;9.00;;
54539;SDS011;40438;52.992;18.604;2022-09-09T13:05:44;16.00;;;9.35;;
54539;SDS011;40438;52.992;18.604;2022-09-09T13:08:11;16.23;;;10.48;;
54539;SDS011;40438;52.992;18.604;2022-09-09T13:10:40;18.58;;;10.88;;
54539;SDS011;40438;52.992;18.604;2022-09-09T13:13:13;19.67;;;10.65;;
54539;SDS011;40438;52.992;18.604;2022-09-09T13:15:47;21.95;;;10.10;;
54539;SDS011;40438;52.992;18.604;2022-09-09T13:18:15;24.08;;;9.60;;
54539;SDS011;40438;52.992;18.604;2022-09-09T13:20:47;16.40;;;9.10;;
54539;SDS011;40438;52.992;18.604;2022-09-09T13:23:13;16.75;;;10.35;;
54539;SDS011;40438;52.992;18.604;2022-09-09T13:25:41;20.95;;;10.07;;
54539;SDS011;40438;52.992;18.604;2022-09-09T13:28:20;17.30;;;9.88;;
54539;SDS011;40438;52.992;18.604;2022-09-09T13:30:54;17.35;;;9.02;;
54539;SDS011;40438;52.992;18.604;2022-09-09T13:33:22;17.42;;;9.52;;
54539;SDS011;40438;52.992;18.604;2022-09-09T13:35:50;16.42;;;8.73;;
54539;SDS011;40438;52.992;18.604;2022-09-09T13:38:19;19.30;;;9.77;;
54539;SDS011;40438;52.992;18.604;2022-09-09T13:40:52;14.70;;;8.93;;
54539;SDS011;40438;52.992;18.604;2022-09-09T13:43:20;17.95;;;9.52;;
54539;SDS011;40438;52.992;18.604;2022-09-09T13:45:52;21.05;;;9.57;;
54539;SDS011;40438;52.992;18.604;2022-09-09T13:48:19;15.32;;;9.05;;
54539;SDS011;40438;52.992;18.604;2022-09-09T13:50:52;17.63;;;9.88;;
54539;SDS011;40438;52.992;18.604;2022-09-09T13:53:19;20.55;;;9.32;;
54539;SDS011;40438;52.992;18.604;2022-09-09T13:55:45;15.00;;;9.40;;
54539;SDS011;40438;52.992;18.604;2022-09-09T13:58:14;17.73;;;9.93;;
54539;SDS011;40438;52.992;18.604;2022-09-09T14:00:41;19.52;;;9.32;;
54539;SDS011;40438;52.992;18.604;2022-09-09T14:03:07;21.70;;;10.15;;
54539;SDS011;40438;52.992;18.604;2022-09-09T14:05:33;21.77;;;10.13;;
54539;SDS011;40438;52.992;18.604;2022-09-09T14:08:00;19.60;;;9.15;;
54539;SDS011;40438;52.992;18.604;2022-09-09T14:10:28;15.73;;;9.05;;
54539;SDS011;40438;52.992;18.604;2022-09-09T14:12:54;15.82;;;8.95;;
54539;SDS011;40438;52.992;18.604;2022-09-09T14:15:20;16.92;;;9.75;;
54539;SDS011;40438;52.992;18.604;2022-09-09T14:17:46;17.08;;;9.10;;
54539;SDS011;40438;52.992;18.604;2022-09-09T14:20:11;19.90;;;9.20;;
54539;SDS011;40438;52.992;18.604;2022-09-09T14:22:37;17.08;;;9.77;;
54539;SDS011;40438;52.992;18.604;2022-09-09T14:25:05;16.35;;;9.68;;
54539;SDS011;40438;52.992;18.604;2022-09-09T14:27:32;16.63;;;9.75;;
54539;SDS011;40438;52.992;18.604;2022-09-09T14:29:57;16.90;;;9.77;;
54539;SDS011;40438;52.992;18.604;2022-09-09T14:32:23;21.98;;;9.30;;
54539;SDS011;40438;52.992;18.604;2022-09-09T14:34:49;18.98;;;10.00;;
54539;SDS011;40438;52.992;18.604;2022-09-09T14:37:15;19.75;;;9.52;;
54539;SDS011;40438;52.992;18.604;2022-09-09T14:39:41;17.73;;;9.68;;
54539;SDS011;40438;52.992;18.604;2022-09-09T14:42:08;17.42;;;9.63;;
54539;SDS011;40438;52.992;18.604;2022-09-09T14:44:34;16.40;;;9.93;;
54539;SDS011;40438;52.992;18.604;2022-09-09T14:46:59;20.25;;;10.52;;